sensor_id;sensor_type;location;lat;lon;timestamp;P1;durP1;ratioP1;P2;durP2;ratioP2
83485;SDS011;73423;45.118;20.726;2024-02-04T00:06:40;27.15;;;14.68;;
83485;SDS011;73423;45.118;20.726;2024-02-04T00:16:41;40.27;;;17.37;;
83485;SDS011;73423;45.118;20.726;2024-02-04T00:26:43;40.40;;;18.47;;
83485;SDS011;73423;45.118;20.726;2024-02-04T00:36:44;30.25;;;16.80;;
83485;SDS011;73423;45.118;20.726;2024-02-04T00:46:45;29.93;;;15.37;;
83485;SDS011;73423;45.118;20.726;2024-02-04T00:56:46;57.97;;;27.13;;
83485;SDS011;73423;45.118;20.726;2024-02-04T01:06:48;34.70;;;17.30;;
83485;SDS011;73423;45.118;20.726;2024-02-04T01:16:49;31.63;;;15.57;;
83485;SDS011;73423;45.118;20.726;2024-02-04T01:26:50;35.87;;;15.90;;
83485;SDS011;73423;45.118;20.726;2024-02-04T01:36:51;25.75;;;14.50;;
83485;SDS011;73423;45.118;20.726;2024-02-04T01:46:52;35.20;;;17.42;;
83485;SDS011;73423;45.118;20.726;2024-02-04T01:56:55;28.50;;;16.50;;
83485;SDS011;73423;45.118;20.726;2024-02-04T02:06:57;26.47;;;14.43;;
83485;SDS011;73423;45.118;20.726;2024-02-04T02:17:02;30.73;;;14.82;;
83485;SDS011;73423;45.118;20.726;2024-02-04T02:27:07;24.43;;;13.70;;
83485;SDS011;73423;45.118;20.726;2024-02-04T02:37:29;25.47;;;13.63;;
83485;SDS011;73423;45.118;20.726;2024-02-04T02:47:35;30.10;;;14.73;;
83485;SDS011;73423;45.118;20.726;2024-02-04T02:57:37;26.73;;;14.17;;
83485;SDS011;73423;45.118;20.726;2024-02-04T03:07:38;39.20;;;16.27;;
83485;SDS011;73423;45.118;20.726;2024-02-04T03:17:39;23.88;;;11.85;;
83485;SDS011;73423;45.118;20.726;2024-02-04T03:27:40;39.97;;;17.95;;
83485;SDS011;73423;45.118;20.726;2024-02-04T03:37:41;16.73;;;9.30;;
83485;SDS011;73423;45.118;20.726;2024-02-04T03:47:43;20.50;;;11.50;;
83485;SDS011;73423;45.118;20.726;2024-02-04T03:57:44;19.02;;;11.40;;
83485;SDS011;73423;45.118;20.726;2024-02-04T04:07:45;26.43;;;12.70;;
83485;SDS011;73423;45.118;20.726;2024-02-04T04:17:46;26.80;;;13.37;;
83485;SDS011;73423;45.118;20.726;2024-02-04T04:27:47;20.30;;;11.07;;
83485;SDS011;73423;45.118;20.726;2024-02-04T04:37:49;24.60;;;13.30;;
83485;SDS011;73423;45.118;20.726;2024-02-04T04:47:51;21.43;;;12.77;;
83485;SDS011;73423;45.118;20.726;2024-02-04T04:57:52;19.63;;;11.70;;
83485;SDS011;73423;45.118;20.726;2024-02-04T05:07:53;27.48;;;13.90;;
83485;SDS011;73423;45.118;20.726;2024-02-04T05:17:54;20.30;;;10.13;;
83485;SDS011;73423;45.118;20.726;2024-02-04T05:27:56;17.43;;;9.23;;
83485;SDS011;73423;45.118;20.726;2024-02-04T05:37:57;15.23;;;8.75;;
83485;SDS011;73423;45.118;20.726;2024-02-04T05:47:58;12.87;;;8.10;;
83485;SDS011;73423;45.118;20.726;2024-02-04T05:57:59;15.00;;;8.47;;
83485;SDS011;73423;45.118;20.726;2024-02-04T06:08:00;15.55;;;9.77;;
83485;SDS011;73423;45.118;20.726;2024-02-04T06:18:02;17.73;;;11.10;;
83485;SDS011;73423;45.118;20.726;2024-02-04T06:28:03;36.87;;;19.50;;
83485;SDS011;73423;45.118;20.726;2024-02-04T06:38:04;24.45;;;14.05;;
83485;SDS011;73423;45.118;20.726;2024-02-04T06:48:06;24.10;;;14.73;;
83485;SDS011;73423;45.118;20.726;2024-02-04T06:58:08;29.60;;;17.70;;
83485;SDS011;73423;45.118;20.726;2024-02-04T07:08:09;26.50;;;15.00;;
83485;SDS011;73423;45.118;20.726;2024-02-04T07:18:10;22.38;;;14.05;;
83485;SDS011;73423;45.118;20.726;2024-02-04T07:28:12;27.63;;;15.27;;
83485;SDS011;73423;45.118;20.726;2024-02-04T07:38:13;68.67;;;30.40;;
83485;SDS011;73423;45.118;20.726;2024-02-04T07:48:14;50.17;;;23.60;;
83485;SDS011;73423;45.118;20.726;2024-02-04T07:58:15;28.43;;;14.23;;
83485;SDS011;73423;45.118;20.726;2024-02-04T08:08:16;40.93;;;18.67;;
83485;SDS011;73423;45.118;20.726;2024-02-04T08:18:18;43.60;;;19.90;;
83485;SDS011;73423;45.118;20.726;2024-02-04T08:28:19;60.90;;;29.70;;
83485;SDS011;73423;45.118;20.726;2024-02-04T08:38:20;34.53;;;19.23;;
83485;SDS011;73423;45.118;20.726;2024-02-04T08:48:21;51.73;;;26.87;;
83485;SDS011;73423;45.118;20.726;2024-02-04T08:58:22;42.00;;;23.50;;
83485;SDS011;73423;45.118;20.726;2024-02-04T09:08:23;26.50;;;15.30;;
83485;SDS011;73423;45.118;20.726;2024-02-04T09:18:24;25.23;;;12.90;;
83485;SDS011;73423;45.118;20.726;2024-02-04T09:28:26;24.42;;;12.75;;
83485;SDS011;73423;45.118;20.726;2024-02-04T09:38:27;20.13;;;11.13;;
83485;SDS011;73423;45.118;20.726;2024-02-04T09:48:34;21.13;;;11.13;;
83485;SDS011;73423;45.118;20.726;2024-02-04T09:58:35;14.73;;;7.88;;
83485;SDS011;73423;45.118;20.726;2024-02-04T10:08:37;22.93;;;12.23;;
83485;SDS011;73423;45.118;20.726;2024-02-04T10:18:42;4.93;;;2.77;;
83485;SDS011;73423;45.118;20.726;2024-02-04T10:28:46;4.45;;;3.03;;
83485;SDS011;73423;45.118;20.726;2024-02-04T10:38:48;3.57;;;2.40;;
83485;SDS011;73423;45.118;20.726;2024-02-04T10:48:55;9.47;;;4.53;;
83485;SDS011;73423;45.118;20.726;2024-02-04T10:58:56;8.88;;;4.90;;
83485;SDS011;73423;45.118;20.726;2024-02-04T11:09:01;8.43;;;4.97;;
83485;SDS011;73423;45.118;20.726;2024-02-04T11:19:11;10.07;;;4.20;;
83485;SDS011;73423;45.118;20.726;2024-02-04T11:29:17;8.27;;;4.13;;
83485;SDS011;73423;45.118;20.726;2024-02-04T11:39:19;3.80;;;2.50;;
83485;SDS011;73423;45.118;20.726;2024-02-04T11:49:24;10.00;;;3.97;;
83485;SDS011;73423;45.118;20.726;2024-02-04T11:59:27;4.97;;;3.50;;
83485;SDS011;73423;45.118;20.726;2024-02-04T12:09:28;5.10;;;3.57;;
83485;SDS011;73423;45.118;20.726;2024-02-04T12:19:29;15.13;;;6.83;;
83485;SDS011;73423;45.118;20.726;2024-02-04T12:29:30;6.00;;;3.40;;
83485;SDS011;73423;45.118;20.726;2024-02-04T12:39:35;4.85;;;3.17;;
83485;SDS011;73423;45.118;20.726;2024-02-04T12:49:36;4.70;;;2.63;;
83485;SDS011;73423;45.118;20.726;2024-02-04T12:59:37;4.20;;;2.53;;
83485;SDS011;73423;45.118;20.726;2024-02-04T13:09:38;5.17;;;2.50;;
83485;SDS011;73423;45.118;20.726;2024-02-04T13:19:39;3.23;;;2.07;;
83485;SDS011;73423;45.118;20.726;2024-02-04T13:29:41;3.67;;;2.40;;
83485;SDS011;73423;45.118;20.726;2024-02-04T13:39:43;4.50;;;1.90;;
83485;SDS011;73423;45.118;20.726;2024-02-04T13:49:46;18.83;;;7.77;;
83485;SDS011;73423;45.118;20.726;2024-02-04T13:59:47;11.20;;;5.87;;
83485;SDS011;73423;45.118;20.726;2024-02-04T14:09:48;4.30;;;1.93;;
83485;SDS011;73423;45.118;20.726;2024-02-04T14:19:49;13.52;;;7.28;;
83485;SDS011;73423;45.118;20.726;2024-02-04T14:29:52;12.07;;;5.40;;
83485;SDS011;73423;45.118;20.726;2024-02-04T14:39:53;7.07;;;3.73;;
83485;SDS011;73423;45.118;20.726;2024-02-04T14:49:55;8.40;;;4.40;;
83485;SDS011;73423;45.118;20.726;2024-02-04T14:59:56;8.20;;;4.10;;
83485;SDS011;73423;45.118;20.726;2024-02-04T15:09:59;19.10;;;6.80;;
83485;SDS011;73423;45.118;20.726;2024-02-04T15:20:00;34.27;;;11.90;;
83485;SDS011;73423;45.118;20.726;2024-02-04T15:30:01;42.90;;;14.67;;
83485;SDS011;73423;45.118;20.726;2024-02-04T15:40:05;30.25;;;13.70;;
83485;SDS011;73423;45.118;20.726;2024-02-04T15:50:06;12.57;;;5.60;;
83485;SDS011;73423;45.118;20.726;2024-02-04T16:00:10;16.33;;;7.83;;
83485;SDS011;73423;45.118;20.726;2024-02-04T16:10:18;55.73;;;18.67;;
83485;SDS011;73423;45.118;20.726;2024-02-04T16:20:21;80.20;;;33.55;;
83485;SDS011;73423;45.118;20.726;2024-02-04T16:30:25;121.57;;;52.87;;
83485;SDS011;73423;45.118;20.726;2024-02-04T16:40:26;94.33;;;40.90;;
83485;SDS011;73423;45.118;20.726;2024-02-04T16:50:28;67.10;;;32.70;;
83485;SDS011;73423;45.118;20.726;2024-02-04T17:00:30;138.90;;;58.70;;
83485;SDS011;73423;45.118;20.726;2024-02-04T17:10:31;106.03;;;49.77;;
83485;SDS011;73423;45.118;20.726;2024-02-04T17:20:38;56.08;;;25.35;;
83485;SDS011;73423;45.118;20.726;2024-02-04T17:30:46;54.00;;;25.13;;
83485;SDS011;73423;45.118;20.726;2024-02-04T17:40:47;52.63;;;25.70;;
83485;SDS011;73423;45.118;20.726;2024-02-04T17:50:49;55.13;;;26.67;;
83485;SDS011;73423;45.118;20.726;2024-02-04T18:00:50;71.97;;;33.40;;
83485;SDS011;73423;45.118;20.726;2024-02-04T18:10:52;150.67;;;49.23;;
83485;SDS011;73423;45.118;20.726;2024-02-04T18:20:53;45.50;;;20.43;;
83485;SDS011;73423;45.118;20.726;2024-02-04T18:30:54;41.33;;;21.33;;
83485;SDS011;73423;45.118;20.726;2024-02-04T18:40:56;36.73;;;17.97;;
83485;SDS011;73423;45.118;20.726;2024-02-04T18:50:57;78.17;;;33.67;;
83485;SDS011;73423;45.118;20.726;2024-02-04T19:00:58;49.20;;;24.70;;
83485;SDS011;73423;45.118;20.726;2024-02-04T19:10:59;38.88;;;19.58;;
83485;SDS011;73423;45.118;20.726;2024-02-04T19:21:01;32.97;;;17.67;;
83485;SDS011;73423;45.118;20.726;2024-02-04T19:31:03;35.47;;;19.03;;
83485;SDS011;73423;45.118;20.726;2024-02-04T19:41:04;35.72;;;18.70;;
83485;SDS011;73423;45.118;20.726;2024-02-04T19:51:05;41.47;;;18.90;;
83485;SDS011;73423;45.118;20.726;2024-02-04T20:01:06;39.97;;;19.83;;
83485;SDS011;73423;45.118;20.726;2024-02-04T20:11:07;109.63;;;39.03;;
83485;SDS011;73423;45.118;20.726;2024-02-04T20:21:09;52.47;;;22.70;;
83485;SDS011;73423;45.118;20.726;2024-02-04T20:31:11;40.87;;;18.97;;
83485;SDS011;73423;45.118;20.726;2024-02-04T20:41:12;41.92;;;18.27;;
83485;SDS011;73423;45.118;20.726;2024-02-04T20:51:13;46.60;;;19.58;;
83485;SDS011;73423;45.118;20.726;2024-02-04T21:01:16;37.30;;;18.73;;
83485;SDS011;73423;45.118;20.726;2024-02-04T21:11:19;42.40;;;21.03;;
83485;SDS011;73423;45.118;20.726;2024-02-04T21:21:21;59.42;;;29.65;;
83485;SDS011;73423;45.118;20.726;2024-02-04T21:31:22;60.50;;;30.27;;
83485;SDS011;73423;45.118;20.726;2024-02-04T21:41:24;49.50;;;25.53;;
83485;SDS011;73423;45.118;20.726;2024-02-04T21:51:25;50.78;;;23.85;;
83485;SDS011;73423;45.118;20.726;2024-02-04T22:01:27;56.97;;;27.13;;
83485;SDS011;73423;45.118;20.726;2024-02-04T22:11:28;61.27;;;29.30;;
83485;SDS011;73423;45.118;20.726;2024-02-04T22:21:30;59.38;;;29.15;;
83485;SDS011;73423;45.118;20.726;2024-02-04T22:31:31;52.88;;;27.23;;
83485;SDS011;73423;45.118;20.726;2024-02-04T22:41:39;66.93;;;32.77;;
83485;SDS011;73423;45.118;20.726;2024-02-04T22:51:40;70.70;;;36.43;;
83485;SDS011;73423;45.118;20.726;2024-02-04T23:01:42;94.75;;;41.85;;
83485;SDS011;73423;45.118;20.726;2024-02-04T23:11:43;110.97;;;46.07;;
83485;SDS011;73423;45.118;20.726;2024-02-04T23:21:45;36.70;;;18.07;;
83485;SDS011;73423;45.118;20.726;2024-02-04T23:31:47;27.08;;;13.40;;
83485;SDS011;73423;45.118;20.726;2024-02-04T23:41:48;24.40;;;12.50;;
83485;SDS011;73423;45.118;20.726;2024-02-04T23:51:49;23.20;;;12.67;;
